Impacts METAR Board
IDs:

KSAT - San Antonio Intl, TX, US

Updated at: 0500 UTC 20 Sep 2020
Potential Impact None Slight Moderate High
Time 19/17Z 19/18Z 19/19Z 19/20Z 19/21Z 19/22Z 19/23Z 20/00Z 20/01Z 20/02Z 20/03Z 20/04Z 20/05Z
Temp80 81 82 83 85 85 84 82 79 75 74 72 70
Dewpt61 60 59 59 59 59 58 57 56 57 57 56 56
Altim30.11 30.10 30.08 30.04 30.02 30.01 30.01 30.01 30.03 30.05 30.07 30.08 30.10
VIS10 10 10 10 10 10 10 10 10 10 10 10 10
CIG34 -- 49 -- -- -- -- -- -- -- -- -- --
CoverBKNSCTBKNSCTSCTFEWFEWFEWFEWFEWFEWFEWCLR
FltCatVFRVFRVFRVFRVFRVFRVFRVFRVFRVFRVFRVFRVFR
WX--------------------------
WDir303602030201040304020202010
WSpd10 11 10 9 10 8 9 8 6 5 5 5 4
WGst19 19 -- 20 18 -- 16 -- -- -- -- -- --
R04/22
XWnd 2 7 4 2 4 4 0 2 0 2 2 2 2
XGst 4 12 -- 4 6 -- 0 -- -- -- -- -- --
HWnd 10 8 9 9 9 7 9 8 6 5 5 5 3
HGst 19 14 -- 20 17 -- 16 -- -- -- -- -- --
R12/30
XWnd 10 8 9 9 9 7 9 8 6 5 5 5 3
XGst 19 14 -- 20 17 -- 16 -- -- -- -- -- --
HWnd -2 -7 -4 -2 -4 -4 -0 -2 -0 -2 -2 -2 -2
HGst -4 -13 -- -4 -7 -- -1 -- -- -- -- -- --
Raw hourly METARs
KSAT 191651Z 03010G19KT 10SM BKN034 BKN250 27/16 A3011 RMK AO2 SLP179 T02670161
KSAT 191751Z 36011G19KT 10SM SCT043 27/16 A3010 RMK AO2 SLP175 T02720156 10283 20200 58005
KSAT 191851Z 02010KT 360V070 10SM BKN049 28/15 A3008 RMK AO2 SLP167 T02780150
KSAT 191951Z 03009G20KT 10SM SCT049 28/15 A3004 RMK AO2 SLP156 T02830150
KSAT 192051Z 02010G18KT 10SM SCT050 29/15 A3002 RMK AO2 SLP149 T02940150 56025
KSAT 192151Z 01008KT 10SM FEW050 29/15 A3001 RMK AO2 SLP143 T02940150
KSAT 192251Z 04009G16KT 10SM FEW050 29/14 A3001 RMK AO2 SLP144 T02890144
KSAT 192351Z 03008KT 10SM FEW050 28/14 A3001 RMK AO2 SLP146 T02780139 10300 20267 55003
KSAT 200051Z 04006KT 10SM FEW050 26/13 A3003 RMK AO2 SLP152 T02610133
KSAT 200151Z 02005KT 10SM FEW050 24/14 A3005 RMK AO2 SLP158 T02390139
KSAT 200251Z 02005KT 10SM FEW050 23/14 A3007 RMK AO2 SLP165 T02330139 53018
KSAT 200351Z 02005KT 10SM FEW050 22/13 A3008 RMK AO2 SLP170 T02220133
KSAT 200451Z 01004KT 10SM CLR 21/13 A3010 RMK AO2 SLP175 T02110133



Page loaded:  05:09 UTC  |   10:09 PM Pacific  |   11:09 PM Mountain  |   12:09 AM Central  |   01:09 AM Eastern

 

ADVISORIES

FORECASTS

FORECASTS

OBSERVATIONS

USER TOOLS

ABOUT US